Time;durP1;ratioP1;P1;durP2;ratioP2;P2;SDS_P1;SDS_P2;PMS_P1;PMS_P2;Temp;Humidity;BMP_temperature;BMP_pressure;BME280_temperature;BME280_humidity;BME280_pressure;Samples;Min_cycle;Max_cycle;Signal;HPM_P1;HPM_P2
2022/02/04 00:20:10;;;;;;;24.55;16.38;;;;;;;6.38;79.63;98799.59;2625056;54;20037;-66
2022/02/04 00:21:23;;;;;;;23.50;15.98;;;;;;;6.52;79.66;98797.25;2624794;47;20031;-67
2022/02/04 00:23:53;;;;;;;23.05;15.25;;;;;;;6.47;79.59;98804.81;2625136;54;20031;-64
2022/02/04 00:26:30;;;;;;;21.50;15.40;;;;;;;6.50;79.44;98801.88;2625267;54;20035;-65
2022/02/04 00:29:08;;;;;;;18.33;14.27;;;;;;;6.48;79.10;98793.31;2623920;54;20042;-66
2022/02/04 00:31:41;;;;;;;18.63;14.25;;;;;;;6.46;79.17;98793.50;2624505;39;20434;-66
2022/02/04 00:34:14;;;;;;;20.83;14.18;;;;;;;6.43;79.41;98791.22;2624520;39;20466;-66
2022/02/04 00:36:50;;;;;;;20.17;13.48;;;;;;;6.47;79.66;98795.13;2625294;39;20463;-66
2022/02/04 00:39:24;;;;;;;20.52;13.45;;;;;;;6.48;79.40;98791.53;2624465;54;20046;-66
2022/02/04 00:42:02;;;;;;;18.73;13.52;;;;;;;6.42;79.37;98798.28;2625281;54;20044;-66
2022/02/04 00:44:32;;;;;;;20.05;13.65;;;;;;;6.42;79.44;98794.81;2625399;39;20439;-66
2022/02/04 00:47:25;;;;;;;17.58;13.55;;;;;;;6.46;79.47;98801.38;2624649;54;20046;-66
2022/02/04 00:50:02;;;;;;;17.75;13.52;;;;;;;6.49;79.69;98802.84;2624699;54;20035;-66
2022/02/04 00:52:40;;;;;;;21.20;13.63;;;;;;;6.49;79.32;98806.31;2624003;54;20018;-66
2022/02/04 00:55:23;;;;;;;18.35;12.68;;;;;;;6.46;79.47;98804.00;2624014;54;20038;-66
2022/02/04 01:06:27;;;;;;;19.20;13.38;;;;;;;6.48;79.41;98809.91;2624441;54;20038;-66
2022/02/04 01:26:02;;;;;;;15.00;11.30;;;;;;;6.55;78.47;98803.00;2623139;54;20030;-66
2022/02/04 01:28:31;;;;;;;14.52;10.55;;;;;;;6.56;78.32;98798.56;2624647;54;20054;-66
2022/02/04 01:31:04;;;;;;;14.38;10.52;;;;;;;6.55;78.47;98802.19;2624451;54;20049;-66
2022/02/04 01:33:35;;;;;;;14.73;10.68;;;;;;;6.49;78.37;98803.69;2624031;54;20034;-66
2022/02/04 01:36:06;;;;;;;14.82;10.40;;;;;;;6.50;78.51;98813.19;2623806;54;20533;-66
2022/02/04 01:38:35;;;;;;;14.18;10.63;;;;;;;6.53;78.20;98817.28;2622958;54;20046;-66
2022/02/04 01:41:07;;;;;;;13.35;10.25;;;;;;;6.55;78.28;98818.75;2623957;54;20030;-66
2022/02/04 01:43:37;;;;;;;14.82;10.75;;;;;;;6.58;78.17;98815.00;2623277;54;20027;-66
2022/02/04 01:46:12;;;;;;;12.48;9.48;;;;;;;6.61;78.21;98806.75;2622783;54;20125;-66
2022/02/04 01:48:43;;;;;;;11.63;9.38;;;;;;;6.65;77.83;98801.03;2622557;54;20030;-66
2022/02/04 01:51:15;;;;;;;12.10;9.35;;;;;;;6.64;77.71;98798.56;2622333;54;20026;-66
2022/02/04 01:53:45;;;;;;;14.23;9.98;;;;;;;6.62;77.81;98803.97;2622461;54;20022;-66
2022/02/04 01:56:16;;;;;;;15.57;9.85;;;;;;;6.62;77.30;98796.09;2622486;54;20030;-66
2022/02/04 01:58:45;;;;;;;14.45;10.27;;;;;;;6.66;77.43;98796.59;2622388;54;20027;-67
2022/02/04 02:01:18;;;;;;;12.93;9.85;;;;;;;6.69;77.34;98812.00;2622649;47;20026;-66
2022/02/04 02:03:47;;;;;;;12.32;10.10;;;;;;;6.67;77.56;98814.81;2622523;54;20022;-67
2022/02/04 02:06:50;;;;;;;13.60;10.80;;;;;;;6.68;77.22;98802.47;2623147;54;20031;-66
2022/02/04 02:09:24;;;;;;;12.93;9.48;;;;;;;6.65;77.34;98790.53;2623699;54;20035;-66
2022/02/04 02:11:57;;;;;;;14.70;10.63;;;;;;;6.65;77.68;98793.16;2623934;54;20031;-66
2022/02/04 02:14:29;;;;;;;13.65;9.35;;;;;;;6.70;77.30;98790.03;2622846;54;20034;-66
2022/02/04 02:33:52;;;;;;;13.95;10.32;;;;;;;6.55;76.96;98779.38;2622260;39;20439;-66
2022/02/04 02:42:28;;;;;;;13.27;9.90;;;;;;;6.42;77.45;98784.31;2619443;54;20593;-66
2022/02/04 02:45:13;;;;;;;14.98;11.48;;;;;;;6.39;77.80;98788.09;2620978;39;20434;-67
2022/02/04 02:47:54;;;;;;;16.92;10.50;;;;;;;6.43;77.52;98781.50;2620316;54;20022;-67
2022/02/04 02:50:54;;;;;;;15.02;10.60;;;;;;;6.48;77.49;98780.19;2621267;54;20018;-66
2022/02/04 02:56:41;;;;;;;16.27;10.88;;;;;;;6.46;77.17;98785.63;2620208;54;20041;-66
2022/02/04 02:59:13;;;;;;;14.18;11.07;;;;;;;6.41;77.39;98783.50;2621747;54;20073;-66
2022/02/04 03:01:46;;;;;;;13.82;10.77;;;;;;;6.44;77.73;98792.84;2622166;47;20034;-66
2022/02/04 03:04:17;;;;;;;15.05;10.95;;;;;;;6.48;77.86;98788.88;2621091;54;20050;-66
2022/02/04 03:06:48;;;;;;;16.52;11.43;;;;;;;6.51;77.60;98791.19;2621844;54;20550;-67
2022/02/04 03:09:19;;;;;;;14.45;11.20;;;;;;;6.59;77.95;98785.09;2622957;54;20119;-67
2022/02/04 03:11:51;;;;;;;14.20;9.73;;;;;;;6.58;77.55;98783.47;2622143;54;20039;-67
2022/02/04 03:14:21;;;;;;;14.75;11.05;;;;;;;6.58;77.61;98778.22;2621976;54;20047;-67
2022/02/04 03:16:51;;;;;;;12.43;9.48;;;;;;;6.56;78.03;98782.81;2622489;54;20041;-67
2022/02/04 03:19:22;;;;;;;13.35;10.10;;;;;;;6.54;77.59;98780.38;2621723;54;20037;-67
2022/02/04 03:21:51;;;;;;;13.02;10.32;;;;;;;6.57;77.68;98787.06;2621850;54;20584;-66
2022/02/04 03:24:23;;;;;;;15.52;11.00;;;;;;;6.57;77.89;98787.91;2621053;54;20034;-65
2022/02/04 03:26:58;;;;;;;13.95;9.43;;;;;;;6.59;78.22;98790.38;2621462;54;20031;-67
2022/02/04 03:29:32;;;;;;;14.43;10.38;;;;;;;6.63;77.83;98789.84;2621251;54;20030;-67
2022/02/04 03:32:07;;;;;;;11.38;8.68;;;;;;;6.64;77.80;98790.66;2622732;54;20034;-66
2022/02/04 03:34:37;;;;;;;10.38;8.20;;;;;;;6.55;77.98;98792.50;2623914;47;20027;-66
2022/02/04 03:37:06;;;;;;;13.48;9.98;;;;;;;6.56;78.13;98793.31;2624665;54;20049;-65
2022/02/04 03:39:36;;;;;;;12.15;9.45;;;;;;;6.51;77.52;98788.56;2623971;54;20045;-65
2022/02/04 03:42:09;;;;;;;14.20;9.13;;;;;;;6.56;77.57;98785.44;2623103;54;20038;-66
2022/02/04 03:44:39;;;;;;;13.20;9.25;;;;;;;6.56;77.83;98785.44;2622446;54;20026;-65
2022/02/04 03:47:09;;;;;;;15.50;9.40;;;;;;;6.50;77.50;98789.56;2621938;54;20027;-66
2022/02/04 03:49:38;;;;;;;12.93;9.60;;;;;;;6.51;77.72;98793.81;2622306;54;20030;-66
2022/02/04 03:52:09;;;;;;;15.02;10.13;;;;;;;6.52;78.26;98789.38;2621885;54;20046;-65
2022/02/04 03:54:38;;;;;;;13.30;9.43;;;;;;;6.51;77.95;98788.56;2622327;54;20046;-66
2022/02/04 03:57:10;;;;;;;14.50;9.60;;;;;;;6.51;78.04;98790.38;2622398;54;20038;-66
2022/02/04 03:59:40;;;;;;;11.98;9.13;;;;;;;6.51;78.08;98790.38;2620842;54;20034;-66
2022/02/04 04:02:10;;;;;;;13.20;9.18;;;;;;;6.49;78.36;98790.56;2621204;54;20034;-66
2022/02/04 04:04:39;;;;;;;12.80;9.82;;;;;;;6.46;78.05;98796.13;2621215;54;20027;-66
2022/02/04 04:07:09;;;;;;;12.70;9.13;;;;;;;6.48;78.35;98794.16;2623817;54;20039;-67
2022/02/04 04:09:44;;;;;;;12.55;9.27;;;;;;;6.49;78.10;98789.72;2623545;47;20031;-65
2022/02/04 04:12:18;;;;;;;11.77;9.25;;;;;;;6.53;78.41;98788.38;2624582;54;20046;-68
2022/02/04 04:14:52;;;;;;;13.55;10.52;;;;;;;6.49;78.29;98789.72;2624693;54;20049;-67
2022/02/04 04:17:21;;;;;;;;;;;;;;;6.46;78.16;98783.00;2625601;54;20030;-67
2022/02/04 04:19:51;;;;;;;12.65;9.43;;;;;;;6.48;78.85;98780.19;2627935;39;20338;-66
2022/02/04 04:22:21;;;;;;;11.35;8.85;;;;;;;6.50;78.73;98786.94;2626009;54;20093;-66
2022/02/04 04:24:50;;;;;;;10.18;8.20;;;;;;;6.54;78.28;98782.19;2625609;54;20042;-68
2022/02/04 04:27:23;;;;;;;10.98;8.77;;;;;;;6.56;78.40;98788.88;2626060;54;20034;-66
2022/02/04 04:29:52;;;;;;;9.45;7.82;;;;;;;6.55;77.96;98784.63;2625938;54;20030;-65
2022/02/04 04:32:22;;;;;;;11.35;8.80;;;;;;;6.53;78.24;98785.75;2625868;54;20037;-66
2022/02/04 04:34:51;;;;;;;12.20;9.00;;;;;;;6.52;78.13;98782.31;2625954;54;20062;-65
2022/02/04 04:37:23;;;;;;;10.50;8.10;;;;;;;6.56;78.13;98783.63;2626225;54;20035;-65
2022/02/04 04:40:04;;;;;;;11.63;9.20;;;;;;;6.51;77.92;98785.94;2622438;54;20031;-64
2022/02/04 04:42:52;;;;;;;11.20;8.55;;;;;;;6.45;78.39;98779.56;2622898;54;20026;-65
2022/02/04 05:26:34;;;;;;;14.32;9.38;;;;;;;6.45;79.39;98784.81;2618521;39;20466;-68
2022/02/04 05:29:07;;;;;;;11.73;8.90;;;;;;;6.43;79.39;98783.31;2618390;54;20030;-69
2022/02/04 05:31:40;;;;;;;12.23;9.85;;;;;;;6.40;79.70;98784.47;2618541;54;20137;-68
2022/02/04 05:34:09;;;;;;;12.15;9.40;;;;;;;6.42;79.53;98785.13;2617545;54;20058;-69
2022/02/04 05:36:42;;;;;;;12.27;8.90;;;;;;;6.49;79.78;98782.69;2617685;47;20061;-69
2022/02/04 05:39:14;;;;;;;12.83;9.83;;;;;;;6.44;79.22;98784.97;2618013;54;20082;-68
2022/02/04 05:41:48;;;;;;;12.07;9.98;;;;;;;6.41;79.62;98785.31;2617978;54;20042;-68
2022/02/04 05:44:18;;;;;;;11.63;9.73;;;;;;;6.40;79.17;98788.91;2617735;54;20046;-68
2022/02/04 05:46:56;;;;;;;15.88;10.65;;;;;;;6.38;79.35;98783.84;2618048;54;20038;-68
2022/02/04 05:49:28;;;;;;;13.57;10.07;;;;;;;6.38;79.46;98778.56;2618976;39;20549;-68
2022/02/04 05:52:05;;;;;;;12.95;10.05;;;;;;;6.38;79.79;98785.63;2618736;54;20039;-67
2022/02/04 05:54:49;;;;;;;12.15;9.60;;;;;;;6.37;80.03;98790.06;2618366;54;20051;-67
2022/02/04 05:57:24;;;;;;;12.00;9.73;;;;;;;6.39;79.77;98788.09;2619180;54;20042;-67
2022/02/04 06:00:15;;;;;;;13.52;11.43;;;;;;;6.41;80.07;98786.13;2618551;54;20085;-68
2022/02/04 06:02:57;;;;;;;12.43;10.00;;;;;;;6.45;79.86;98786.63;2618057;47;20026;-68
2022/02/04 06:05:46;;;;;;;15.77;10.68;;;;;;;6.38;80.00;98789.09;2617798;54;20034;-68
2022/02/04 06:08:36;;;;;;;14.55;11.23;;;;;;;6.39;80.14;98784.66;2618015;54;20073;-68
2022/02/04 06:11:20;;;;;;;14.88;11.10;;;;;;;6.46;79.83;98790.88;2618036;54;20030;-68
2022/02/04 06:14:11;;;;;;;;;;;;;;;6.42;79.95;98794.81;2618840;54;20026;-68
2022/02/04 06:22:19;;;;;;;16.60;9.80;;;;;;;6.42;79.78;98798.28;2619867;54;20042;-68
2022/02/04 06:24:49;;;;;;;13.18;10.07;;;;;;;6.46;80.03;98788.25;2621132;54;20038;-68
2022/02/04 06:27:23;;;;;;;12.82;9.95;;;;;;;6.44;79.61;98792.84;2620689;54;20042;-69
2022/02/04 06:29:53;;;;;;;14.55;11.27;;;;;;;6.41;79.72;98790.56;2620342;54;20034;-69
2022/02/04 06:32:23;;;;;;;13.70;10.02;;;;;;;6.42;79.85;98787.75;2620063;54;20034;-69
2022/02/04 06:34:55;;;;;;;12.23;9.10;;;;;;;6.43;80.03;98797.28;2618418;54;20055;-68
2022/02/04 06:37:25;;;;;;;12.68;9.43;;;;;;;6.51;79.81;98796.44;2621351;54;20050;-68
2022/02/04 06:39:54;;;;;;;13.52;9.48;;;;;;;6.53;80.15;98785.75;2623365;54;20549;-68
2022/02/04 06:42:26;;;;;;;10.80;9.00;;;;;;;6.57;79.55;98787.06;2622999;54;20050;-68
2022/02/04 06:44:56;;;;;;;12.73;9.27;;;;;;;6.59;79.92;98779.84;2622957;54;20042;-68
2022/02/04 06:47:27;;;;;;;10.82;8.20;;;;;;;6.48;79.75;98782.81;2622910;54;20042;-69
2022/02/04 06:50:00;;;;;;;10.68;8.23;;;;;;;6.44;79.77;98785.78;2621959;54;20042;-69
2022/02/04 06:52:29;;;;;;;10.60;8.45;;;;;;;6.43;79.96;98796.47;2621883;54;20054;-67
2022/02/04 06:54:59;;;;;;;9.38;7.38;;;;;;;6.40;80.02;98788.91;2621776;39;20666;-67
2022/02/04 06:57:29;;;;;;;11.18;8.48;;;;;;;6.41;79.80;98795.81;2620441;54;20121;-68
2022/02/04 06:59:58;;;;;;;9.27;7.57;;;;;;;6.36;80.25;98791.03;2619937;54;20035;-68
2022/02/04 07:02:28;;;;;;;9.70;8.27;;;;;;;6.34;80.30;98781.72;2617775;54;20026;-68
2022/02/04 07:05:08;;;;;;;10.60;7.75;;;;;;;6.34;80.31;98793.03;2617488;54;20118;-68
2022/02/04 07:07:40;;;;;;;9.50;7.60;;;;;;;6.30;79.92;98790.91;2617716;54;20026;-68
2022/02/04 07:10:18;;;;;;;11.20;9.30;;;;;;;6.29;80.22;98791.88;2618751;54;20031;-68
2022/02/04 07:12:57;;;;;;;11.02;8.55;;;;;;;6.31;80.54;98801.22;2621791;54;20045;-69
2022/02/04 07:21:10;;;;;;;;;;;;;;;6.32;80.41;98794.97;2621826;54;20030;-69
2022/02/04 07:23:40;;;;;;;16.65;12.18;;;;;;;6.30;80.45;98801.41;2622456;54;19953;-69
2022/02/04 07:26:10;;;;;;;11.85;8.82;;;;;;;6.33;80.46;98793.19;2620904;54;20038;-69
2022/02/04 07:28:39;;;;;;;10.70;8.38;;;;;;;6.36;80.32;98796.28;2620984;54;20027;-67
2022/02/04 07:31:09;;;;;;;11.65;8.98;;;;;;;6.39;80.31;98797.78;2620619;54;20597;-67
2022/02/04 07:33:46;;;;;;;30.10;19.33;;;;;;;6.40;80.10;98796.78;2617286;54;20030;-68
2022/02/04 07:41:43;;;;;;;8.30;7.00;;;;;;;6.41;80.14;98794.00;2617929;54;20030;-68
2022/02/04 07:44:13;;;;;;;8.90;6.28;;;;;;;6.41;80.27;98793.19;2617425;54;20049;-67
2022/02/04 07:46:43;;;;;;;7.82;6.55;;;;;;;6.45;80.14;98794.50;2617765;54;20050;-67
2022/02/04 07:49:14;;;;;;;10.30;7.20;;;;;;;6.48;80.53;98790.69;2618014;54;20069;-68
2022/02/04 07:51:46;;;;;;;7.10;5.85;;;;;;;6.46;80.50;98798.75;2620226;31;20512;-68
2022/02/04 07:54:15;;;;;;;7.47;6.18;;;;;;;6.47;80.00;98786.44;2618433;47;20077;-68
2022/02/04 07:56:45;;;;;;;9.57;6.97;;;;;;;6.45;80.05;98787.44;2619708;39;20433;-68
2022/02/04 07:59:15;;;;;;;8.85;6.50;;;;;;;6.46;80.09;98783.00;2619441;54;20033;-69
2022/02/04 08:01:47;;;;;;;7.10;5.72;;;;;;;6.50;80.02;98792.19;2618868;54;20034;-69
2022/02/04 08:04:20;;;;;;;7.25;5.70;;;;;;;6.51;79.71;98785.13;2618993;54;20069;-69
2022/02/04 08:07:03;;;;;;;6.57;5.47;;;;;;;6.52;79.22;98781.50;2619281;54;20035;-69
2022/02/04 08:09:42;;;;;;;6.40;5.65;;;;;;;6.54;79.47;98779.53;2619407;54;20042;-69
2022/02/04 08:12:35;;;;;;;7.22;6.10;;;;;;;6.59;79.16;98771.97;2619434;54;20042;-68
2022/02/04 08:15:14;;;;;;;8.02;5.78;;;;;;;6.58;79.22;98780.84;2625386;54;20034;-69
2022/02/04 08:20:42;;;;;;;7.05;5.63;;;;;;;6.56;78.96;98783.63;2618331;46;20593;-69
2022/02/04 08:26:19;;;;;;;;;;;;;;;6.59;78.86;98772.78;2619058;54;20562;-69
2022/02/04 08:29:08;;;;;;;6.22;4.85;;;;;;;6.66;78.77;98765.06;2619479;54;20499;-68
2022/02/04 08:31:49;;;;;;;6.90;5.03;;;;;;;6.65;78.70;98769.50;2619857;39;20409;-67
2022/02/04 08:56:43;;;;;;;6.88;4.75;;;;;;;6.88;79.03;98774.84;2618505;54;20162;-69
2022/02/04 08:59:19;;;;;;;6.63;4.53;;;;;;;6.89;78.30;98762.50;2619424;54;20047;-69
2022/02/04 09:01:56;;;;;;;8.70;4.95;;;;;;;6.80;78.52;98774.06;2618670;54;20039;-69
2022/02/04 09:04:34;;;;;;;7.88;5.07;;;;;;;6.75;78.16;98769.31;2617259;47;20030;-68
2022/02/04 09:07:07;;;;;;;7.47;5.05;;;;;;;6.81;78.52;98770.44;2618649;47;20035;-68
2022/02/04 09:20:43;;;;;;;4.03;3.63;;;;;;;6.76;78.43;98780.63;2618057;54;20086;-69
2022/02/04 09:23:14;;;;;;;5.03;4.00;;;;;;;6.75;78.39;98771.13;2618607;54;20038;-68
2022/02/04 09:25:44;;;;;;;3.33;2.95;;;;;;;6.76;77.82;98778.00;2618175;54;20027;-68
2022/02/04 09:28:16;;;;;;;5.32;3.90;;;;;;;6.76;78.15;98770.13;2618408;54;20135;-68
2022/02/04 09:30:46;;;;;;;4.75;3.90;;;;;;;6.75;77.82;98771.94;2618306;54;20880;-68
2022/02/04 09:33:16;;;;;;;3.33;2.97;;;;;;;6.67;77.73;98770.16;2618045;54;20042;-68
2022/02/04 09:35:46;;;;;;;3.65;2.88;;;;;;;6.65;77.56;98766.88;2617962;54;20557;-67
2022/02/04 09:38:16;;;;;;;5.20;3.22;;;;;;;6.70;77.31;98764.56;2618087;54;20038;-67
2022/02/04 09:40:48;;;;;;;4.03;3.40;;;;;;;6.69;77.21;98760.31;2618356;54;20038;-68
2022/02/04 09:43:21;;;;;;;6.22;4.38;;;;;;;6.70;77.52;98759.31;2618396;54;20030;-68
2022/02/04 09:45:51;;;;;;;6.47;4.32;;;;;;;6.76;77.62;98751.72;2617979;54;20026;-68
2022/02/04 09:48:21;;;;;;;4.90;3.88;;;;;;;6.76;77.11;98757.00;2617782;47;20042;-67
2022/02/04 09:50:53;;;;;;;4.07;3.20;;;;;;;6.76;77.36;98759.63;2618896;54;20057;-67
2022/02/04 10:10:18;;;;;;;6.18;4.20;;;;;;;6.83;78.29;98752.69;2618029;54;20026;-68
2022/02/04 10:13:14;;;;;;;4.68;4.05;;;;;;;6.88;78.18;98739.88;2618160;54;20090;-69
2022/02/04 10:18:45;;;;;;;3.92;3.53;;;;;;;6.88;78.24;98737.25;2625381;54;20054;-69
2022/02/04 10:21:15;;;;;;;3.80;3.10;;;;;;;6.90;78.27;98733.47;2618766;54;20074;-69
2022/02/04 10:23:54;;;;;;;4.63;3.38;;;;;;;6.85;78.08;98734.94;2618901;39;20442;-69
2022/02/04 10:26:25;;;;;;;3.95;3.50;;;;;;;6.76;77.86;98725.47;2618526;54;20034;-70
2022/02/04 10:28:56;;;;;;;3.88;3.50;;;;;;;6.82;78.35;98722.97;2618237;54;20057;-68
2022/02/04 10:31:30;;;;;;;4.43;3.75;;;;;;;6.83;77.52;98723.78;2618109;54;20033;-68
2022/02/04 10:34:04;;;;;;;4.55;4.03;;;;;;;6.89;77.79;98723.91;2617843;54;20027;-68
2022/02/04 10:36:48;;;;;;;4.85;4.07;;;;;;;6.97;77.93;98722.25;2618586;54;20030;-68
2022/02/04 10:42:27;;;;;;;3.72;3.25;;;;;;;7.02;76.69;98718.13;2618339;54;20130;-69
2022/02/04 10:45:16;;;;;;;5.25;4.30;;;;;;;7.02;76.46;98712.88;2617752;54;20038;-69
2022/02/04 10:56:44;;;;;;;4.10;3.72;;;;;;;7.42;74.96;98701.28;2617870;54;20046;-68
2022/02/04 11:02:14;;;;;;;5.07;3.95;;;;;;;7.45;74.13;98703.56;2617936;47;20074;-68
2022/02/04 11:05:03;;;;;;;5.70;4.03;;;;;;;7.39;73.84;98703.47;2618311;54;20054;-68
2022/02/04 11:10:33;;;;;;;10.25;6.90;;;;;;;7.33;73.48;98707.59;2617816;54;20577;-69
2022/02/04 11:33:50;;;;;;;3.25;2.65;;;;;;;7.42;72.07;98651.31;2618264;54;20045;-63
2022/02/04 11:51:49;;;;;;;2.50;2.30;;;;;;;7.75;70.87;98621.28;2617762;54;20048;-64
2022/02/04 11:54:53;;;;;;;4.80;3.67;;;;;;;7.97;70.33;98602.00;2618111;54;20163;-64
2022/02/04 11:57:28;;;;;;;3.55;3.25;;;;;;;8.08;70.54;98604.19;2618413;54;20040;-63
2022/02/04 12:00:03;;;;;;;1.83;1.63;;;;;;;8.23;69.99;98603.34;2617593;47;20038;-63
2022/02/04 12:02:42;;;;;;;1.63;1.50;;;;;;;8.25;69.63;98601.38;2618365;54;20078;-64
2022/02/04 12:05:33;;;;;;;2.55;1.60;;;;;;;8.27;68.92;98592.28;2617790;54;20107;-64
2022/02/04 12:08:30;;;;;;;3.90;1.95;;;;;;;8.26;68.75;98592.47;2618669;39;20458;-64
2022/02/04 12:11:11;;;;;;;2.25;1.80;;;;;;;8.33;69.18;98588.09;2617508;47;20030;-64
2022/02/04 12:14:07;;;;;;;1.77;1.40;;;;;;;8.30;67.56;98570.84;2618179;54;20030;-64
2022/02/04 12:16:37;;;;;;;1.73;1.20;;;;;;;8.37;68.28;98584.94;2618873;39;20418;-64
2022/02/04 12:19:10;;;;;;;1.30;1.20;;;;;;;8.39;68.30;98582.13;2618213;54;20095;-64
2022/02/04 12:21:51;;;;;;;1.00;1.00;;;;;;;8.35;67.64;98580.81;2617958;54;20055;-64
2022/02/04 12:24:41;;;;;;;2.05;0.80;;;;;;;8.26;67.45;98579.31;2617975;54;20060;-64
2022/02/04 12:27:34;;;;;;;1.20;1.10;;;;;;;8.13;67.19;98567.59;2619245;54;20617;-64
2022/02/04 12:30:45;;;;;;;1.85;0.88;;;;;;;7.94;67.31;98576.03;2618487;47;20053;-64
2022/02/04 12:33:19;;;;;;;1.60;1.20;;;;;;;7.88;68.19;98569.69;2618239;54;20027;-63
2022/02/04 12:35:48;;;;;;;0.83;0.83;;;;;;;7.82;67.92;98564.31;2618198;54;20057;-63
2022/02/04 12:38:20;;;;;;;2.50;1.92;;;;;;;7.67;67.93;98553.75;2619269;39;20206;-63
2022/02/04 12:40:59;;;;;;;1.95;1.30;;;;;;;7.62;68.26;98567.47;2618931;54;20026;-63
2022/02/04 12:43:36;;;;;;;0.90;0.80;;;;;;;7.58;68.28;98565.38;2618729;54;20042;-63
2022/02/04 12:46:07;;;;;;;1.42;0.98;;;;;;;7.44;68.93;98561.72;2617761;51;20041;-63
2022/02/04 12:48:37;;;;;;;1.90;1.48;;;;;;;7.44;69.53;98557.28;2618824;54;20086;-63
2022/02/04 12:51:07;;;;;;;1.27;0.93;;;;;;;7.43;69.41;98553.03;2618950;54;20597;-65
2022/02/04 12:53:41;;;;;;;1.50;1.20;;;;;;;7.48;69.48;98549.84;2618926;54;20035;-65
2022/02/04 12:56:34;;;;;;;0.80;0.80;;;;;;;7.43;69.79;98541.69;2618607;54;20082;-65
2022/02/04 13:02:08;;;;;;;0.85;0.85;;;;;;;7.36;69.83;98530.25;2618569;54;20050;-64
2022/02/04 13:07:38;;;;;;;2.25;1.30;;;;;;;7.43;70.22;98523.28;2619183;54;20046;-63
2022/02/04 13:10:23;;;;;;;1.90;1.75;;;;;;;7.48;69.77;98520.94;2620401;54;20123;-63
2022/02/04 13:12:56;;;;;;;2.15;1.52;;;;;;;7.71;70.11;98518.22;2621188;54;20030;-64
2022/02/04 13:15:32;;;;;;;0.95;0.85;;;;;;;7.73;68.92;98510.97;2618928;54;20062;-63
2022/02/04 13:18:02;;;;;;;2.05;1.10;;;;;;;7.61;69.23;98507.16;2619178;39;20837;-65
2022/02/04 13:20:32;;;;;;;1.25;1.20;;;;;;;7.51;69.50;98502.16;2618674;54;20038;-64
2022/02/04 13:23:08;;;;;;;1.75;1.25;;;;;;;7.45;69.58;98495.78;2618805;47;20038;-66
2022/02/04 13:25:43;;;;;;;1.50;1.40;;;;;;;7.39;69.61;98490.44;2618347;54;20061;-64
2022/02/04 13:28:16;;;;;;;3.75;1.20;;;;;;;7.37;70.46;98501.13;2620639;39;20403;-65
2022/02/04 13:30:59;;;;;;;2.63;1.38;;;;;;;7.39;70.48;98467.59;2622623;54;20533;-65
2022/02/04 13:33:31;;;;;;;1.33;1.23;;;;;;;7.44;70.59;98467.06;2623051;54;20038;-64
2022/02/04 13:36:14;;;;;;;5.65;2.28;;;;;;;7.49;70.15;98463.88;2622886;54;20054;-64
2022/02/04 13:38:55;;;;;;;1.30;1.00;;;;;;;7.48;70.32;98465.69;2622755;54;20034;-63
2022/02/04 13:41:38;;;;;;;1.60;1.50;;;;;;;7.51;70.56;98456.59;2622535;54;20039;-64
2022/02/04 13:44:26;;;;;;;2.47;1.10;;;;;;;7.51;70.46;98443.44;2622227;54;20617;-64
2022/02/04 13:47:17;;;;;;;1.20;1.10;;;;;;;7.50;70.09;98439.19;2619851;54;20058;-64
2022/02/04 13:52:52;;;;;;;1.30;1.20;;;;;;;7.52;70.55;98461.69;2621680;47;20034;-64
2022/02/04 13:55:33;;;;;;;2.08;1.90;;;;;;;7.44;70.99;98451.28;2622446;54;20034;-65
2022/02/04 13:58:19;;;;;;;2.15;1.15;;;;;;;7.33;70.81;98444.63;2621912;54;20035;-65
2022/02/04 14:00:58;;;;;;;1.60;1.10;;;;;;;7.25;71.60;98449.97;2622133;54;20061;-65
2022/02/04 14:03:32;;;;;;;1.75;1.60;;;;;;;7.22;71.71;98444.25;2622167;54;20569;-64
2022/02/04 14:06:07;;;;;;;2.15;1.15;;;;;;;7.23;71.98;98435.41;2620534;39;20439;-64
2022/02/04 14:08:47;;;;;;;6.20;1.60;;;;;;;7.24;72.41;98426.50;2618505;54;20042;-64
2022/02/04 14:11:29;;;;;;;1.58;1.10;;;;;;;7.34;71.65;98434.94;2618263;47;20026;-65
2022/02/04 14:14:06;;;;;;;1.67;1.00;;;;;;;7.34;71.90;98429.66;2619561;54;20066;-65
2022/02/04 14:16:36;;;;;;;1.45;1.08;;;;;;;7.32;71.63;98426.41;2619305;47;20038;-65
2022/02/04 14:19:09;;;;;;;1.45;1.35;;;;;;;7.33;71.63;98433.31;2619669;54;20034;-63
2022/02/04 14:21:38;;;;;;;2.80;1.55;;;;;;;7.30;71.60;98429.22;2619820;54;20623;-64
2022/02/04 14:24:11;;;;;;;1.40;1.30;;;;;;;7.29;71.90;98426.78;2621633;54;20041;-64
2022/02/04 14:26:45;;;;;;;2.47;2.13;;;;;;;7.28;71.86;98425.16;2623023;54;20562;-65
2022/02/04 14:29:20;;;;;;;1.73;1.38;;;;;;;7.32;72.02;98423.78;2621290;54;20073;-65
2022/02/04 14:31:55;;;;;;;1.23;1.13;;;;;;;7.31;72.02;98422.16;2621316;47;20026;-65
2022/02/04 14:34:56;;;;;;;1.58;1.40;;;;;;;7.33;72.38;98414.91;2622183;54;20027;-64
2022/02/04 14:51:45;;;;;;;2.92;2.10;;;;;;;7.25;73.11;98401.84;2619653;54;20034;-66
2022/02/04 14:54:31;;;;;;;3.55;1.40;;;;;;;7.32;73.08;98395.69;2619927;54;20046;-64
2022/02/04 15:02:41;;;;;;;1.77;1.65;;;;;;;7.18;74.74;98396.47;2622018;54;20034;-64
2022/02/04 15:05:16;;;;;;;1.60;1.30;;;;;;;7.14;74.86;98397.84;2623435;54;20082;-65
2022/02/04 15:07:52;;;;;;;2.25;2.05;;;;;;;7.09;75.41;98393.13;2623137;54;20062;-65
2022/02/04 15:10:30;;;;;;;1.10;1.00;;;;;;;7.09;75.64;98392.31;2622286;54;20558;-63
2022/02/04 15:13:01;;;;;;;2.42;1.40;;;;;;;7.11;75.70;98396.41;2622517;54;20077;-65
2022/02/04 15:15:30;;;;;;;1.70;1.48;;;;;;;7.08;75.91;98388.06;2620225;31;20574;-63
2022/02/04 15:18:07;;;;;;;1.13;1.02;;;;;;;7.05;77.06;98405.00;2619581;54;20057;-64
2022/02/04 15:20:36;;;;;;;1.20;1.10;;;;;;;6.98;76.79;98395.38;2618409;47;20022;-64
2022/02/04 15:23:12;;;;;;;1.98;1.08;;;;;;;6.92;77.58;98402.16;2618847;54;20046;-64
2022/02/04 15:25:41;;;;;;;1.48;1.20;;;;;;;6.88;77.95;98403.53;2618824;54;20054;-64
2022/02/04 15:28:33;;;;;;;1.35;1.20;;;;;;;6.88;77.92;98404.34;2619301;39;20451;-64
2022/02/04 15:31:03;;;;;;;1.52;1.20;;;;;;;6.87;78.59;98412.41;2618638;54;20082;-64
2022/02/04 15:33:35;;;;;;;1.63;1.52;;;;;;;6.83;78.73;98414.56;2618942;54;20057;-64
2022/02/04 15:36:06;;;;;;;1.83;1.73;;;;;;;6.82;79.01;98418.19;2619043;31;20516;-64
2022/02/04 15:38:39;;;;;;;2.28;2.03;;;;;;;6.87;78.84;98407.97;2618505;54;20122;-64
2022/02/04 15:41:14;;;;;;;1.33;1.20;;;;;;;6.86;79.09;98416.84;2617889;54;20041;-64
2022/02/04 15:43:49;;;;;;;3.15;1.20;;;;;;;6.89;79.08;98413.84;2618057;54;20114;-64
2022/02/04 15:49:25;;;;;;;2.70;2.45;;;;;;;6.85;79.08;98406.50;2618287;54;20042;-64
2022/02/04 15:52:26;;;;;;;1.77;1.38;;;;;;;6.87;78.92;98396.66;2618329;54;20048;-64
2022/02/04 15:55:26;;;;;;;3.38;1.35;;;;;;;6.85;79.38;98399.44;2618174;54;20039;-63
2022/02/04 15:57:57;;;;;;;1.20;1.10;;;;;;;6.82;79.10;98420.00;2618254;54;20082;-63
2022/02/04 16:00:53;;;;;;;1.10;1.00;;;;;;;6.76;79.37;98415.47;2618264;54;20042;-65
2022/02/04 16:06:14;;;;;;;1.60;1.20;;;;;;;6.77;79.49;98417.09;2617213;54;20098;-64
2022/02/04 16:08:44;;;;;;;1.90;1.58;;;;;;;6.79;79.75;98417.72;2618265;54;20054;-64
2022/02/04 16:11:32;;;;;;;1.52;0.95;;;;;;;6.77;79.41;98423.16;2618217;54;20058;-64
2022/02/04 16:14:13;;;;;;;1.27;1.10;;;;;;;6.75;79.78;98416.47;2619762;31;20571;-64
2022/02/04 16:16:47;;;;;;;1.75;1.50;;;;;;;6.77;80.27;98414.44;2619183;54;20026;-63
2022/02/04 16:19:27;;;;;;;2.00;1.50;;;;;;;6.77;79.95;98417.88;2619228;54;20600;-64
2022/02/04 16:25:08;;;;;;;2.13;1.60;;;;;;;6.78;79.98;98413.47;2618052;47;20045;-64
2022/02/04 16:30:22;;;;;;;1.50;0.95;;;;;;;6.73;79.65;98410.56;2618913;54;20063;-63
2022/02/04 16:32:52;;;;;;;1.33;1.00;;;;;;;6.73;79.73;98405.28;2619023;54;20061;-64
2022/02/04 16:35:22;;;;;;;1.70;1.42;;;;;;;6.73;79.90;98410.56;2618892;54;20090;-65
2022/02/04 16:38:02;;;;;;;1.35;1.25;;;;;;;6.75;80.25;98408.56;2618534;47;20107;-64
2022/02/04 16:40:32;;;;;;;1.30;0.95;;;;;;;6.79;79.75;98388.84;2618541;47;20133;-65
2022/02/04 16:43:07;;;;;;;1.33;1.15;;;;;;;6.82;79.57;98399.81;2619088;54;20554;-65
2022/02/04 16:45:36;;;;;;;0.88;0.88;;;;;;;6.79;80.02;98394.09;2618902;54;20074;-64
2022/02/04 16:48:07;;;;;;;1.33;1.23;;;;;;;6.80;79.97;98393.09;2619200;54;20063;-65
2022/02/04 16:50:37;;;;;;;1.00;0.90;;;;;;;6.82;79.81;98377.97;2618884;54;20045;-66
2022/02/04 16:53:07;;;;;;;1.85;1.63;;;;;;;6.82;79.68;98391.13;2620527;31;20541;-65
2022/02/04 16:55:37;;;;;;;2.10;1.52;;;;;;;6.81;79.84;98378.94;2619025;54;20558;-65